Pagrindinis puslapis
METAR-TAF:

METAR-TAF

Oro uostai :

Terezina, Piauí, Brazilija

platuma: 05-03S, ilguma: 042-49W, Aukštis: 69 m

Dabartinis oras

Ataskaita buvo paskelbta 33 minutes, ne 11:00 UTC
Vėjas 6 kt iš Šiaurės/Šiaurės Rytų
Temperatūra 27°C
Drėgmė 74%
Slėgis 1013 hPa
Matomumas 10 km arba daugiau
Išsisklaidę debesys ne aukštis 1700 ft

METAR: SBTE 161100Z 02006KT 9999 SCT017 27/22 Q1013

Laikas: 08:33 (11:33 UTC)

Prognozė

Ataskaita buvo paskelbta 7 valandos ir 33 minutes, ne 04:00 UTC
Prognozė galioja nuo 16 metu 06 UTC su 16 metu 18 UTC
Vėjas 5 kt iš Šiaurės
Matomumas 10 km arba daugiau
nėra debesų žemiau 1500 m ir nėra kamuolinių lietaus debesų
Tapsmas
nuo 16 metu 08 UTC su 16 metu 10 UTC
Vėjas 5 kt iš Rytų/Šiaurės Rytų
Tapsmas
nuo 16 metu 15 UTC su 16 metu 17 UTC
Vėjas 8 kt iš Pietų/Pietryčių
Išsisklaidę debesys ne aukštis 4000 ft

TAF: SBTE 160400Z 1606/1618 36005KT CAVOK TN26/1606Z TX38/1618Z BECMG 1608/1610 07005KT BECMG 1615/1617 15008KT SCT040 RMK PEH

Orai ataskaitas ir orų prognozės (METAR, TAF).

turimą stotys yra geltonos ir raudonos taškus žemėlapyje.

Perkelti pele per norėdami pamatyti stoties vardą.

Tada spustelėkite, norėdami matyti oro stebėjimo ir prognozės.

Norėdami pakeisti žemėlapį: spustelėkite ant žalios mygtukų su juodo kryžiaus žemyn,; žalią mygtuką su brūkšneliu, jei norite nutolinti; arba žalių rodyklių gretimoms žemėlapius.


METAR-TAF: